createdAt,value
2022-10-09T00:01:41.168Z,70.67
2022-10-09T00:04:09.979Z,83.30
2022-10-09T00:06:39.532Z,71.73
2022-10-09T00:09:08.361Z,72.57
2022-10-09T00:11:36.970Z,58.53
2022-10-09T00:14:07.485Z,114.83
2022-10-09T00:16:36.358Z,82.23
2022-10-09T00:19:05.515Z,80.23
2022-10-09T00:21:35.395Z,108.63
2022-10-09T00:24:05.551Z,75.47
2022-10-09T00:26:35.214Z,76.07
2022-10-09T00:29:04.048Z,75.27
2022-10-09T00:31:34.331Z,68.83
2022-10-09T00:34:03.313Z,84.03
2022-10-09T00:36:32.708Z,75.97
2022-10-09T00:39:01.547Z,69.50
2022-10-09T00:41:33.998Z,65.10
2022-10-09T00:44:04.202Z,60.43
2022-10-09T00:46:47.128Z,59.47
2022-10-09T00:49:22.805Z,61.80
2022-10-09T00:51:53.048Z,56.17
2022-10-09T00:54:24.618Z,69.90
2022-10-09T00:56:53.851Z,55.57
2022-10-09T00:59:23.259Z,58.90
2022-10-09T01:01:54.677Z,56.53
2022-10-09T01:04:23.591Z,60.27
2022-10-09T01:07:13.028Z,66.90
2022-10-09T01:10:07.123Z,59.53
2022-10-09T01:12:47.954Z,60.80
2022-10-09T01:15:20.756Z,69.17
2022-10-09T01:17:58.768Z,85.20
2022-10-09T01:20:38.324Z,64.83
2022-10-09T01:23:47.107Z,67.83
2022-10-09T01:26:26.549Z,65.50
2022-10-09T01:29:00.777Z,62.83
2022-10-09T01:31:33.541Z,58.27
2022-10-09T01:34:03.315Z,54.70
2022-10-09T01:36:32.775Z,56.63
2022-10-09T01:39:03.481Z,58.00
2022-10-09T01:41:32.504Z,54.50
2022-10-09T01:44:02.743Z,55.60
2022-10-09T01:46:33.641Z,58.43
2022-10-09T01:49:14.106Z,57.57
2022-10-09T01:51:47.727Z,55.30
2022-10-09T01:54:43.041Z,52.23
2022-10-09T01:57:14.861Z,64.63
2022-10-09T01:59:47.922Z,54.47
2022-10-09T02:02:17.323Z,50.17
2022-10-09T02:04:46.800Z,56.50
2022-10-09T02:07:15.631Z,50.90
2022-10-09T02:09:45.764Z,51.67
2022-10-09T02:12:19.065Z,50.93
2022-10-09T02:15:10.281Z,48.03
2022-10-09T02:17:45.360Z,49.43
2022-10-09T02:20:36.110Z,51.07
2022-10-09T02:23:08.027Z,48.63
2022-10-09T02:25:37.568Z,52.10
2022-10-09T02:28:06.998Z,48.93
2022-10-09T02:30:45.475Z,50.27
2022-10-09T02:33:33.715Z,46.57
2022-10-09T02:36:03.262Z,48.00
2022-10-09T02:38:32.166Z,48.47
2022-10-09T02:41:01.715Z,46.80
2022-10-09T02:43:30.954Z,51.13
2022-10-09T02:46:01.288Z,51.00
2022-10-09T02:48:30.159Z,44.70
2022-10-09T02:50:58.905Z,43.13
2022-10-09T02:53:27.669Z,48.67
2022-10-09T02:55:56.414Z,45.97
2022-10-09T02:58:25.386Z,45.67
2022-10-09T03:00:55.119Z,46.23
2022-10-09T03:03:25.551Z,49.40
2022-10-09T03:06:02.327Z,46.77
2022-10-09T03:08:31.567Z,39.80
2022-10-09T03:11:00.326Z,46.33
2022-10-09T03:13:29.175Z,45.30
2022-10-09T03:16:04.555Z,41.67
2022-10-09T03:18:35.009Z,42.13
2022-10-09T03:21:07.419Z,43.73
2022-10-09T03:23:37.260Z,46.13
2022-10-09T03:26:26.273Z,44.37
2022-10-09T03:28:56.115Z,48.70
2022-10-09T03:31:50.749Z,48.70
2022-10-09T03:34:17.068Z,51.70
2022-10-09T03:36:45.963Z,49.80
2022-10-09T03:39:14.637Z,46.73
2022-10-09T03:41:43.455Z,47.20
2022-10-09T03:44:12.475Z,51.90
2022-10-09T03:46:41.282Z,53.40
2022-10-09T03:49:10.074Z,51.77
2022-10-09T03:51:40.553Z,51.17
2022-10-09T03:54:09.447Z,49.77
2022-10-09T03:56:38.128Z,45.57
2022-10-09T03:59:09.676Z,49.60
2022-10-09T04:01:38.351Z,48.90
2022-10-09T04:04:07.107Z,50.37
2022-10-09T04:06:35.849Z,47.10
2022-10-09T04:09:06.215Z,47.53
2022-10-09T04:11:35.083Z,53.13
2022-10-09T04:14:04.498Z,48.50
2022-10-09T04:16:34.110Z,49.73
2022-10-09T04:19:03.429Z,49.83
2022-10-09T04:21:33.540Z,47.50
2022-10-09T04:24:03.817Z,47.40
2022-10-09T04:26:34.048Z,50.37
2022-10-09T04:29:02.978Z,50.67
2022-10-09T04:31:31.826Z,48.17
2022-10-09T04:34:00.774Z,47.37
2022-10-09T04:36:29.614Z,60.60
2022-10-09T04:38:58.661Z,46.30
2022-10-09T04:41:27.501Z,47.90
2022-10-09T04:43:58.276Z,49.67
2022-10-09T04:46:45.867Z,48.03
2022-10-09T04:49:15.094Z,47.27
2022-10-09T04:51:45.929Z,48.33
2022-10-09T04:54:14.738Z,49.83
2022-10-09T04:56:43.443Z,51.73
2022-10-09T04:59:13.654Z,45.73
2022-10-09T05:01:42.482Z,46.83
2022-10-09T05:04:11.276Z,46.60
2022-10-09T05:06:40.088Z,47.63
2022-10-09T05:09:08.992Z,72.53
2022-10-09T05:11:42.304Z,46.73
2022-10-09T05:14:12.988Z,55.73
2022-10-09T05:17:08.517Z,64.63
2022-10-09T05:19:30.928Z,50.27
2022-10-09T05:22:00.666Z,49.17
2022-10-09T05:24:30.174Z,50.17
2022-10-09T05:26:59.134Z,56.30
2022-10-09T05:29:29.279Z,50.97
2022-10-09T05:31:58.054Z,53.00
2022-10-09T05:34:27.091Z,56.83
2022-10-09T05:36:55.944Z,54.87
2022-10-09T05:39:24.837Z,54.30
2022-10-09T05:41:53.603Z,57.50
2022-10-09T05:44:22.508Z,63.07
2022-10-09T05:46:52.835Z,54.27
2022-10-09T05:49:21.639Z,55.53
2022-10-09T05:51:50.906Z,55.57
2022-10-09T05:54:20.093Z,54.20
2022-10-09T05:56:48.856Z,57.37
2022-10-09T05:59:20.015Z,56.17
2022-10-09T06:01:53.724Z,50.90
2022-10-09T06:04:24.529Z,52.53
2022-10-09T06:06:53.464Z,57.20
2022-10-09T06:09:24.261Z,58.00
2022-10-09T06:11:54.025Z,53.73
2022-10-09T06:14:23.294Z,55.70
2022-10-09T06:16:53.822Z,55.50
2022-10-09T06:19:23.150Z,54.90
2022-10-09T06:21:52.086Z,48.20
2022-10-09T06:24:27.380Z,50.33
2022-10-09T06:26:57.950Z,46.43
2022-10-09T06:29:27.062Z,52.30
2022-10-09T06:31:57.430Z,51.83
2022-10-09T06:34:26.156Z,52.97
2022-10-09T06:36:55.083Z,50.80
2022-10-09T06:39:23.873Z,49.63
2022-10-09T06:41:52.578Z,51.47
2022-10-09T06:44:44.747Z,53.93
2022-10-09T06:47:15.140Z,52.57
2022-10-09T06:49:44.106Z,53.50
2022-10-09T06:52:12.768Z,49.73
2022-10-09T06:54:41.514Z,42.63
2022-10-09T06:57:10.422Z,40.07
2022-10-09T06:59:39.075Z,40.60
2022-10-09T07:02:08.170Z,39.33
2022-10-09T07:04:38.418Z,41.20
2022-10-09T07:07:07.302Z,39.27
2022-10-09T07:09:36.158Z,41.80
2022-10-09T07:12:04.954Z,40.97
2022-10-09T07:14:33.635Z,39.77
2022-10-09T07:17:02.825Z,39.63
2022-10-09T07:19:31.556Z,38.23
2022-10-09T07:22:01.773Z,40.57
2022-10-09T07:24:30.742Z,44.63
2022-10-09T07:26:59.439Z,39.90
2022-10-09T07:29:28.111Z,42.97
2022-10-09T07:31:57.026Z,43.70
2022-10-09T07:34:25.886Z,42.20
2022-10-09T07:36:54.571Z,43.60
2022-10-09T07:39:24.879Z,42.80
2022-10-09T07:41:54.003Z,43.00
2022-10-09T07:44:22.767Z,36.90
2022-10-09T07:46:52.758Z,49.67
2022-10-09T07:49:21.747Z,50.73
2022-10-09T07:51:50.526Z,49.37
2022-10-09T07:54:19.426Z,52.73
2022-10-09T07:56:49.579Z,47.27
2022-10-09T07:59:18.685Z,46.53
2022-10-09T08:01:47.501Z,34.00
2022-10-09T08:04:16.268Z,36.20
2022-10-09T08:06:45.329Z,28.43
2022-10-09T08:09:14.368Z,24.13
2022-10-09T08:11:43.087Z,27.70
2022-10-09T08:14:19.217Z,25.33
2022-10-09T08:16:48.706Z,29.30
2022-10-09T08:19:17.482Z,33.43
2022-10-09T08:21:46.376Z,26.40
2022-10-09T08:24:15.321Z,37.53
2022-10-09T08:26:44.451Z,26.83
2022-10-09T08:29:16.792Z,24.23
2022-10-09T08:31:46.550Z,25.10
2022-10-09T08:34:15.511Z,25.50
2022-10-09T08:36:44.618Z,23.97
2022-10-09T08:39:13.519Z,23.73
2022-10-09T08:41:46.254Z,27.00
2022-10-09T08:44:24.542Z,23.67
2022-10-09T08:47:06.159Z,23.07
2022-10-09T08:49:43.212Z,21.07
2022-10-09T08:52:30.340Z,22.73
2022-10-09T08:55:03.637Z,18.50
2022-10-09T08:57:53.434Z,16.50
2022-10-09T09:00:25.060Z,15.60
2022-10-09T09:03:35.395Z,19.17
2022-10-09T09:06:11.248Z,16.77
2022-10-09T09:08:53.451Z,17.93
2022-10-09T09:11:33.570Z,17.03
2022-10-09T09:14:34.454Z,18.90
2022-10-09T09:17:12.632Z,16.33
2022-10-09T09:19:50.478Z,18.60
2022-10-09T09:22:19.757Z,19.97
2022-10-09T09:24:52.727Z,24.23
2022-10-09T09:27:26.314Z,19.77
2022-10-09T09:30:00.730Z,17.63
2022-10-09T09:32:31.891Z,15.93
2022-10-09T09:35:09.664Z,17.87
2022-10-09T09:37:38.508Z,20.60
2022-10-09T09:43:06.996Z,17.07
2022-10-09T09:45:56.004Z,19.80
2022-10-09T09:48:33.688Z,18.90
2022-10-09T09:51:26.775Z,15.27
2022-10-09T09:53:57.150Z,20.10
2022-10-09T09:57:06.905Z,15.00
2022-10-09T09:59:34.459Z,14.33
2022-10-09T10:02:05.929Z,17.30
2022-10-09T10:04:38.789Z,16.50
2022-10-09T10:07:11.475Z,17.40
2022-10-09T10:09:40.329Z,13.30
2022-10-09T10:12:17.061Z,12.93
2022-10-09T10:14:52.097Z,14.93
2022-10-09T10:17:29.871Z,13.20
2022-10-09T10:20:06.684Z,12.97
2022-10-09T10:22:56.209Z,18.93
2022-10-09T10:25:29.153Z,15.37
2022-10-09T10:28:03.323Z,14.30
2022-10-09T10:30:32.765Z,16.87
2022-10-09T10:33:07.059Z,14.37
2022-10-09T10:35:39.868Z,16.30
2022-10-09T10:38:23.048Z,16.17
2022-10-09T10:40:57.785Z,14.20
2022-10-09T10:43:36.991Z,19.83
2022-10-09T10:46:14.536Z,23.47
2022-10-09T10:48:46.909Z,17.00
2022-10-09T10:51:44.582Z,14.70
2022-10-09T10:54:39.215Z,14.23
2022-10-09T10:57:17.011Z,18.20
2022-10-09T11:00:00.520Z,18.57
2022-10-09T11:03:01.106Z,12.97
2022-10-09T11:05:38.061Z,16.10
2022-10-09T11:08:21.537Z,18.00
2022-10-09T11:11:00.833Z,13.33
2022-10-09T11:13:33.642Z,21.03
2022-10-09T11:16:18.998Z,12.57
2022-10-09T11:19:10.797Z,9.77
2022-10-09T11:21:50.892Z,10.43
2022-10-09T11:24:36.867Z,11.73
2022-10-09T11:27:13.061Z,12.63
2022-10-09T11:29:46.643Z,11.63
2022-10-09T11:32:20.180Z,13.93
2022-10-09T11:34:56.511Z,10.67
2022-10-09T11:37:31.225Z,11.30
2022-10-09T11:40:01.459Z,9.50
2022-10-09T11:42:30.933Z,13.53
2022-10-09T11:45:16.697Z,19.20
2022-10-09T11:47:56.870Z,10.93
2022-10-09T11:50:38.904Z,8.73
2022-10-09T11:53:12.665Z,11.23
2022-10-09T11:55:42.978Z,15.40
2022-10-09T11:58:22.477Z,13.40
2022-10-09T12:00:54.130Z,8.70
2022-10-09T12:03:33.852Z,12.77
2022-10-09T12:06:09.677Z,15.97
2022-10-09T12:08:41.004Z,11.57
2022-10-09T12:11:15.216Z,15.40
2022-10-09T12:13:51.591Z,16.40
2022-10-09T12:16:42.015Z,14.60
2022-10-09T12:19:20.085Z,13.17
2022-10-09T12:21:53.041Z,15.40
2022-10-09T12:24:25.277Z,8.50
2022-10-09T12:26:57.853Z,9.00
2022-10-09T12:29:31.633Z,23.97
2022-10-09T12:32:06.259Z,19.50
2022-10-09T12:34:39.890Z,24.33
2022-10-09T12:37:14.235Z,18.20
2022-10-09T12:39:43.627Z,11.93
2022-10-09T12:42:20.412Z,10.07
2022-10-09T12:44:51.062Z,12.17
2022-10-09T12:47:26.401Z,9.27
2022-10-09T12:50:00.155Z,17.90
2022-10-09T12:52:29.410Z,14.43
2022-10-09T12:54:58.633Z,13.43
2022-10-09T12:57:29.388Z,14.33
2022-10-09T12:59:59.009Z,14.47
2022-10-09T13:02:27.966Z,15.93
2022-10-09T13:05:00.024Z,14.80
2022-10-09T13:07:30.756Z,12.87
2022-10-09T13:10:02.376Z,12.47
2022-10-09T13:12:33.970Z,18.13
2022-10-09T13:15:04.291Z,19.60
2022-10-09T13:17:35.812Z,11.17
2022-10-09T13:20:24.201Z,19.30
2022-10-09T13:22:57.591Z,12.17
2022-10-09T13:25:28.635Z,16.83
2022-10-09T13:27:59.393Z,13.00
2022-10-09T13:30:28.544Z,8.80
2022-10-09T13:32:57.535Z,9.03
2022-10-09T13:35:27.223Z,11.93
2022-10-09T13:37:56.036Z,18.27
2022-10-09T13:40:25.267Z,14.53
2022-10-09T13:42:56.940Z,9.00
2022-10-09T13:45:27.262Z,13.33
2022-10-09T13:47:56.252Z,8.60
2022-10-09T13:50:25.119Z,11.30
2022-10-09T13:52:53.950Z,19.80
2022-10-09T13:55:22.767Z,13.80
2022-10-09T13:57:51.966Z,10.53
2022-10-09T14:00:21.289Z,15.23
2022-10-09T14:02:51.472Z,10.07
2022-10-09T14:05:20.229Z,10.67
2022-10-09T14:07:49.488Z,12.77
2022-10-09T14:10:23.647Z,15.33
2022-10-09T14:12:52.692Z,8.87
2022-10-09T14:15:21.555Z,12.17
2022-10-09T14:17:52.093Z,17.50
2022-10-09T14:20:21.259Z,16.17
2022-10-09T14:22:50.361Z,27.37
2022-10-09T14:25:19.418Z,12.80
2022-10-09T14:27:48.366Z,19.40
2022-10-09T14:30:17.690Z,15.33
2022-10-09T14:32:46.897Z,23.30
2022-10-09T14:35:19.412Z,19.30
2022-10-09T14:37:50.364Z,17.13
2022-10-09T14:40:19.371Z,15.20
2022-10-09T14:42:48.260Z,15.83
2022-10-09T14:45:17.440Z,20.20
2022-10-09T14:47:46.297Z,22.43
2022-10-09T14:50:16.643Z,18.37
2022-10-09T14:52:45.668Z,20.23
2022-10-09T14:55:14.449Z,11.60
2022-10-09T14:57:44.559Z,12.63
2022-10-09T15:00:14.763Z,12.63
2022-10-09T15:02:43.683Z,13.37
2022-10-09T15:05:12.480Z,26.77
2022-10-09T15:07:42.918Z,24.27
2022-10-09T15:10:12.463Z,25.17
2022-10-09T15:12:41.234Z,29.93
2022-10-09T15:15:11.098Z,24.40
2022-10-09T15:17:58.221Z,17.13
2022-10-09T15:20:27.155Z,23.67
2022-10-09T15:22:57.734Z,27.43
2022-10-09T15:25:31.385Z,31.87
2022-10-09T15:28:02.757Z,19.33
2022-10-09T15:30:31.769Z,19.17
2022-10-09T15:33:03.103Z,17.93
2022-10-09T15:35:34.028Z,20.60
2022-10-09T15:38:04.667Z,19.37
2022-10-09T15:40:46.510Z,35.63
2022-10-09T15:43:17.407Z,41.43
2022-10-09T15:45:47.270Z,64.23
2022-10-09T15:48:18.664Z,64.37
2022-10-09T15:50:50.738Z,56.97
2022-10-09T15:53:22.545Z,75.03
2022-10-09T15:55:52.898Z,63.80
2022-10-09T15:58:22.071Z,78.83
2022-10-09T16:00:52.211Z,63.30
2022-10-09T16:03:20.991Z,57.53
2022-10-09T16:05:51.549Z,53.47
2022-10-09T16:08:21.990Z,80.17
2022-10-09T16:10:52.176Z,63.80
2022-10-09T16:13:21.450Z,74.60
2022-10-09T16:15:51.220Z,51.70
2022-10-09T16:18:22.037Z,57.73
2022-10-09T16:21:11.127Z,55.67
2022-10-09T16:23:41.675Z,44.40
2022-10-09T16:26:11.326Z,45.63
2022-10-09T16:28:40.300Z,53.27
2022-10-09T16:31:09.069Z,37.77
2022-10-09T16:33:37.899Z,44.07
2022-10-09T16:36:14.979Z,36.00
2022-10-09T16:38:46.094Z,31.77
2022-10-09T16:41:18.368Z,39.77
2022-10-09T16:43:48.882Z,29.63
2022-10-09T16:46:20.999Z,34.70
2022-10-09T16:48:50.900Z,43.53
2022-10-09T16:51:21.724Z,35.97
2022-10-09T16:53:53.212Z,36.37
2022-10-09T16:56:26.289Z,40.50
2022-10-09T16:58:57.168Z,37.43
2022-10-09T17:01:26.325Z,41.90
2022-10-09T17:03:55.934Z,42.53
2022-10-09T17:06:25.418Z,35.87
2022-10-09T17:08:57.745Z,44.90
2022-10-09T17:11:28.362Z,39.67
2022-10-09T17:13:57.802Z,45.53
2022-10-09T17:16:30.558Z,48.80
2022-10-09T17:18:59.654Z,52.00
2022-10-09T17:21:32.855Z,43.80
2022-10-09T17:24:06.644Z,43.40
2022-10-09T17:26:36.348Z,39.13
2022-10-09T17:29:06.237Z,53.10
2022-10-09T17:31:35.411Z,54.40
2022-10-09T17:34:05.740Z,65.50
2022-10-09T17:36:37.291Z,55.07
2022-10-09T17:39:08.952Z,52.07
2022-10-09T17:41:37.758Z,55.60
2022-10-09T17:44:06.972Z,54.67
2022-10-09T17:46:36.104Z,40.73
2022-10-09T17:49:05.117Z,43.07
2022-10-09T17:51:37.095Z,44.70
2022-10-09T17:54:11.771Z,52.50
2022-10-09T17:56:41.531Z,45.27
2022-10-09T17:59:10.906Z,35.57
2022-10-09T18:01:39.811Z,34.50
2022-10-09T18:04:08.989Z,25.53
2022-10-09T18:06:37.587Z,27.93
2022-10-09T18:09:07.790Z,31.17
2022-10-09T18:11:36.895Z,41.90
2022-10-09T18:14:05.867Z,36.13
2022-10-09T18:16:38.161Z,26.63
2022-10-09T18:19:11.561Z,27.30
2022-10-09T18:21:42.080Z,42.10
2022-10-09T18:24:13.189Z,22.73
2022-10-09T18:26:42.397Z,24.47
2022-10-09T18:29:11.509Z,23.57
2022-10-09T18:31:40.528Z,27.90
2022-10-09T18:34:10.825Z,30.80
2022-10-09T18:36:40.148Z,27.10
2022-10-09T18:39:10.945Z,26.50
2022-10-09T18:41:41.838Z,24.87
2022-10-09T18:44:17.788Z,31.63
2022-10-09T18:46:50.022Z,30.93
2022-10-09T18:49:22.381Z,25.70
2022-10-09T18:51:51.800Z,32.10
2022-10-09T18:54:23.895Z,23.67
2022-10-09T18:56:54.260Z,20.60
2022-10-09T18:59:42.487Z,23.90
2022-10-09T19:02:11.491Z,22.83
2022-10-09T19:04:40.433Z,22.33
2022-10-09T19:07:09.155Z,21.70
2022-10-09T19:09:38.095Z,19.37
2022-10-09T19:12:08.430Z,27.10
2022-10-09T19:14:37.458Z,28.30
2022-10-09T19:17:06.245Z,20.60
2022-10-09T19:19:35.091Z,20.93
2022-10-09T19:22:03.931Z,22.53
2022-10-09T19:24:34.351Z,27.10
2022-10-09T19:27:04.290Z,23.80
2022-10-09T19:29:34.696Z,22.00
2022-10-09T19:32:03.589Z,33.70
2022-10-09T19:34:32.264Z,24.67
2022-10-09T19:37:01.002Z,28.47
2022-10-09T19:39:29.800Z,21.93
2022-10-09T19:41:58.749Z,25.63
2022-10-09T19:44:27.522Z,18.83
2022-10-09T19:46:58.723Z,17.50
2022-10-09T19:49:31.762Z,18.10
2022-10-09T19:52:00.692Z,15.40
2022-10-09T19:54:29.562Z,19.07
2022-10-09T19:56:58.519Z,23.67
2022-10-09T19:59:27.376Z,17.17
2022-10-09T20:01:57.844Z,20.33
2022-10-09T20:04:26.662Z,21.93
2022-10-09T20:06:55.705Z,24.63
2022-10-09T20:09:24.428Z,24.50
2022-10-09T20:11:53.252Z,21.07
2022-10-09T20:14:26.537Z,25.60
2022-10-09T20:16:57.151Z,28.63
2022-10-09T20:19:31.030Z,26.17
2022-10-09T20:21:59.928Z,25.03
2022-10-09T20:24:28.723Z,21.17
2022-10-09T20:26:57.572Z,21.37
2022-10-09T20:29:27.394Z,22.30
2022-10-09T20:31:57.975Z,20.90
2022-10-09T20:34:27.510Z,21.43
2022-10-09T20:36:56.915Z,22.33
2022-10-09T20:39:25.720Z,21.43
2022-10-09T20:41:54.483Z,22.17
2022-10-09T20:44:23.206Z,20.30
2022-10-09T20:46:53.365Z,18.30
2022-10-09T20:49:23.732Z,22.33
2022-10-09T20:51:53.845Z,17.53
2022-10-09T20:54:23.398Z,18.80
2022-10-09T20:56:52.911Z,15.17
2022-10-09T20:59:21.655Z,19.60
2022-10-09T21:01:50.543Z,16.33
2022-10-09T21:04:19.382Z,12.87
2022-10-09T21:06:49.510Z,15.77
2022-10-09T21:09:21.949Z,14.47
2022-10-09T21:11:50.931Z,13.87
2022-10-09T21:14:19.850Z,14.17
2022-10-09T21:16:49.198Z,13.83
2022-10-09T21:19:18.251Z,14.33
2022-10-09T21:21:51.022Z,17.70
2022-10-09T21:24:20.094Z,16.50
2022-10-09T21:26:49.039Z,14.00
2022-10-09T21:29:17.799Z,13.97
2022-10-09T21:31:46.763Z,14.97
2022-10-09T21:34:15.744Z,13.60
2022-10-09T21:37:16.044Z,12.60
2022-10-09T21:39:37.698Z,17.50
2022-10-09T21:42:07.826Z,14.67
2022-10-09T21:44:36.836Z,16.60
2022-10-09T21:47:05.661Z,14.50
2022-10-09T21:49:34.441Z,15.90
2022-10-09T21:52:03.312Z,15.63
2022-10-09T21:54:31.995Z,15.90
2022-10-09T21:57:02.268Z,17.33
2022-10-09T21:59:31.236Z,18.07
2022-10-09T22:02:00.003Z,17.13
2022-10-09T22:04:28.981Z,16.50
2022-10-09T22:06:57.835Z,17.57
2022-10-09T22:09:26.535Z,17.57
2022-10-09T22:11:56.954Z,18.73
2022-10-09T22:14:27.134Z,23.03
2022-10-09T22:16:56.066Z,20.10
2022-10-09T22:19:24.783Z,21.93
2022-10-09T22:21:53.493Z,20.60
2022-10-09T22:24:25.859Z,20.13
2022-10-09T22:26:58.426Z,21.80
2022-10-09T22:29:28.898Z,22.47
2022-10-09T22:31:57.897Z,22.23
2022-10-09T22:34:26.643Z,22.57
2022-10-09T22:36:55.846Z,22.37
2022-10-09T22:39:24.833Z,23.57
2022-10-09T22:41:53.534Z,23.47
2022-10-09T22:44:22.302Z,22.90
2022-10-09T22:46:52.838Z,23.27
2022-10-09T22:49:21.817Z,27.00
2022-10-09T22:51:52.205Z,21.10
2022-10-09T22:54:22.326Z,24.20
2022-10-09T22:56:51.179Z,19.93
2022-10-09T22:59:20.472Z,22.90
2022-10-09T23:01:53.750Z,20.23
2022-10-09T23:04:24.300Z,20.70
2022-10-09T23:06:55.600Z,20.77
2022-10-09T23:09:25.821Z,24.67
2022-10-09T23:11:54.948Z,21.30
2022-10-09T23:14:23.941Z,23.37
2022-10-09T23:16:54.204Z,22.80
2022-10-09T23:19:23.173Z,22.80
2022-10-09T23:21:51.977Z,21.57
2022-10-09T23:24:20.931Z,22.23
2022-10-09T23:26:53.227Z,23.43
2022-10-09T23:29:22.981Z,23.93
2022-10-09T23:31:55.190Z,23.43
2022-10-09T23:34:24.127Z,24.57
2022-10-09T23:36:52.904Z,23.53
2022-10-09T23:39:21.567Z,25.33
2022-10-09T23:48:01.191Z,26.20
2022-10-09T23:50:30.210Z,29.43
2022-10-09T23:52:58.966Z,27.63
2022-10-09T23:55:27.780Z,28.20
2022-10-09T23:57:56.516Z,27.20
